sensor_id;sensor_type;location;lat;lon;timestamp;P1;durP1;ratioP1;P2;durP2;ratioP2
11394;SDS011;5753;54.402;10.220;2022-10-31T00:00:53;24.98;;;17.35;;
11394;SDS011;5753;54.402;10.220;2022-10-31T00:03:19;26.73;;;19.50;;
11394;SDS011;5753;54.402;10.220;2022-10-31T00:05:46;25.95;;;21.15;;
11394;SDS011;5753;54.402;10.220;2022-10-31T00:08:13;39.80;;;25.17;;
11394;SDS011;5753;54.402;10.220;2022-10-31T00:10:41;27.10;;;19.15;;
11394;SDS011;5753;54.402;10.220;2022-10-31T00:13:09;28.85;;;21.83;;
11394;SDS011;5753;54.402;10.220;2022-10-31T00:15:37;30.67;;;22.17;;
11394;SDS011;5753;54.402;10.220;2022-10-31T00:18:04;32.13;;;25.90;;
11394;SDS011;5753;54.402;10.220;2022-10-31T00:20:32;39.83;;;22.95;;
11394;SDS011;5753;54.402;10.220;2022-10-31T00:22:58;40.53;;;24.75;;
11394;SDS011;5753;54.402;10.220;2022-10-31T00:25:26;32.28;;;22.83;;
11394;SDS011;5753;54.402;10.220;2022-10-31T00:27:54;30.85;;;23.65;;
11394;SDS011;5753;54.402;10.220;2022-10-31T00:30:20;36.88;;;26.02;;
11394;SDS011;5753;54.402;10.220;2022-10-31T00:32:46;26.65;;;21.58;;
11394;SDS011;5753;54.402;10.220;2022-10-31T00:35:12;37.38;;;25.95;;
11394;SDS011;5753;54.402;10.220;2022-10-31T00:37:38;35.08;;;23.25;;
11394;SDS011;5753;54.402;10.220;2022-10-31T00:40:04;31.95;;;23.33;;
11394;SDS011;5753;54.402;10.220;2022-10-31T00:42:31;34.78;;;24.98;;
11394;SDS011;5753;54.402;10.220;2022-10-31T00:44:57;38.25;;;27.27;;
11394;SDS011;5753;54.402;10.220;2022-10-31T00:47:23;37.50;;;28.33;;
11394;SDS011;5753;54.402;10.220;2022-10-31T00:49:49;41.08;;;27.77;;
11394;SDS011;5753;54.402;10.220;2022-10-31T00:52:15;38.13;;;27.48;;
11394;SDS011;5753;54.402;10.220;2022-10-31T00:54:41;37.90;;;28.58;;
11394;SDS011;5753;54.402;10.220;2022-10-31T00:57:07;37.75;;;29.55;;
11394;SDS011;5753;54.402;10.220;2022-10-31T00:59:34;43.03;;;27.58;;
11394;SDS011;5753;54.402;10.220;2022-10-31T01:02:00;37.97;;;26.67;;
11394;SDS011;5753;54.402;10.220;2022-10-31T01:04:26;43.90;;;26.30;;
11394;SDS011;5753;54.402;10.220;2022-10-31T01:06:52;32.85;;;26.77;;
11394;SDS011;5753;54.402;10.220;2022-10-31T01:09:18;51.03;;;27.92;;
11394;SDS011;5753;54.402;10.220;2022-10-31T01:11:44;37.15;;;24.23;;
11394;SDS011;5753;54.402;10.220;2022-10-31T01:14:10;41.92;;;28.35;;
11394;SDS011;5753;54.402;10.220;2022-10-31T01:16:36;38.72;;;28.25;;
11394;SDS011;5753;54.402;10.220;2022-10-31T01:19:03;41.80;;;27.98;;
11394;SDS011;5753;54.402;10.220;2022-10-31T01:21:29;44.47;;;25.40;;
11394;SDS011;5753;54.402;10.220;2022-10-31T01:23:55;44.72;;;28.67;;
11394;SDS011;5753;54.402;10.220;2022-10-31T01:26:25;43.20;;;27.80;;
11394;SDS011;5753;54.402;10.220;2022-10-31T01:28:58;42.70;;;28.25;;
11394;SDS011;5753;54.402;10.220;2022-10-31T01:31:27;42.20;;;29.17;;
11394;SDS011;5753;54.402;10.220;2022-10-31T01:33:55;42.05;;;27.52;;
11394;SDS011;5753;54.402;10.220;2022-10-31T01:36:22;43.40;;;27.65;;
11394;SDS011;5753;54.402;10.220;2022-10-31T01:38:52;50.88;;;29.70;;
11394;SDS011;5753;54.402;10.220;2022-10-31T01:41:21;40.67;;;27.58;;
11394;SDS011;5753;54.402;10.220;2022-10-31T01:44:00;37.75;;;26.38;;
11394;SDS011;5753;54.402;10.220;2022-10-31T01:48:58;37.55;;;25.17;;
11394;SDS011;5753;54.402;10.220;2022-10-31T01:51:28;38.88;;;28.63;;
11394;SDS011;5753;54.402;10.220;2022-10-31T01:53:58;32.50;;;23.13;;
11394;SDS011;5753;54.402;10.220;2022-10-31T01:56:27;54.08;;;25.60;;
11394;SDS011;5753;54.402;10.220;2022-10-31T01:58:53;30.45;;;23.55;;
11394;SDS011;5753;54.402;10.220;2022-10-31T02:01:22;38.72;;;27.38;;
11394;SDS011;5753;54.402;10.220;2022-10-31T02:03:48;31.88;;;24.30;;
11394;SDS011;5753;54.402;10.220;2022-10-31T02:06:23;36.67;;;24.67;;
11394;SDS011;5753;54.402;10.220;2022-10-31T02:08:57;37.95;;;28.70;;
11394;SDS011;5753;54.402;10.220;2022-10-31T02:11:24;36.92;;;23.88;;
11394;SDS011;5753;54.402;10.220;2022-10-31T02:13:52;37.63;;;26.42;;
11394;SDS011;5753;54.402;10.220;2022-10-31T02:16:19;35.00;;;22.98;;
11394;SDS011;5753;54.402;10.220;2022-10-31T02:18:45;44.80;;;30.23;;
11394;SDS011;5753;54.402;10.220;2022-10-31T02:21:16;41.45;;;31.95;;
11394;SDS011;5753;54.402;10.220;2022-10-31T02:24:07;50.38;;;30.75;;
11394;SDS011;5753;54.402;10.220;2022-10-31T02:30:03;47.13;;;31.20;;
11394;SDS011;5753;54.402;10.220;2022-10-31T02:32:47;57.92;;;33.00;;
11394;SDS011;5753;54.402;10.220;2022-10-31T02:43:48;44.20;;;26.65;;
11394;SDS011;5753;54.402;10.220;2022-10-31T02:46:23;47.65;;;30.90;;
11394;SDS011;5753;54.402;10.220;2022-10-31T02:48:51;42.97;;;26.15;;
11394;SDS011;5753;54.402;10.220;2022-10-31T02:51:23;38.45;;;29.23;;
11394;SDS011;5753;54.402;10.220;2022-10-31T02:53:49;42.63;;;31.45;;
11394;SDS011;5753;54.402;10.220;2022-10-31T02:56:16;62.42;;;32.75;;
11394;SDS011;5753;54.402;10.220;2022-10-31T02:58:51;45.95;;;31.35;;
11394;SDS011;5753;54.402;10.220;2022-10-31T03:01:31;61.72;;;35.25;;
11394;SDS011;5753;54.402;10.220;2022-10-31T03:04:12;51.78;;;34.22;;
11394;SDS011;5753;54.402;10.220;2022-10-31T03:06:56;49.55;;;33.78;;
11394;SDS011;5753;54.402;10.220;2022-10-31T03:15:49;60.03;;;32.92;;
11394;SDS011;5753;54.402;10.220;2022-10-31T03:18:25;58.67;;;35.75;;
11394;SDS011;5753;54.402;10.220;2022-10-31T03:23:40;60.63;;;38.15;;
11394;SDS011;5753;54.402;10.220;2022-10-31T03:26:09;63.30;;;36.30;;
11394;SDS011;5753;54.402;10.220;2022-10-31T03:28:46;48.67;;;31.70;;
11394;SDS011;5753;54.402;10.220;2022-10-31T03:31:18;52.90;;;30.50;;
11394;SDS011;5753;54.402;10.220;2022-10-31T03:33:48;58.88;;;35.47;;
11394;SDS011;5753;54.402;10.220;2022-10-31T03:36:17;50.65;;;31.08;;
11394;SDS011;5753;54.402;10.220;2022-10-31T03:38:44;48.13;;;34.03;;
11394;SDS011;5753;54.402;10.220;2022-10-31T03:41:14;43.70;;;25.85;;
11394;SDS011;5753;54.402;10.220;2022-10-31T03:43:54;38.22;;;29.95;;
11394;SDS011;5753;54.402;10.220;2022-10-31T03:46:24;53.95;;;29.60;;
11394;SDS011;5753;54.402;10.220;2022-10-31T03:48:51;48.53;;;25.25;;
11394;SDS011;5753;54.402;10.220;2022-10-31T03:54:14;37.70;;;22.33;;
11394;SDS011;5753;54.402;10.220;2022-10-31T03:56:53;61.03;;;28.40;;
11394;SDS011;5753;54.402;10.220;2022-10-31T03:59:47;47.25;;;23.88;;
11394;SDS011;5753;54.402;10.220;2022-10-31T04:02:18;34.17;;;22.02;;
11394;SDS011;5753;54.402;10.220;2022-10-31T04:04:48;32.50;;;22.02;;
11394;SDS011;5753;54.402;10.220;2022-10-31T04:07:15;42.70;;;23.83;;
11394;SDS011;5753;54.402;10.220;2022-10-31T04:09:43;34.08;;;21.33;;
11394;SDS011;5753;54.402;10.220;2022-10-31T04:12:13;34.55;;;22.13;;
11394;SDS011;5753;54.402;10.220;2022-10-31T04:14:41;50.10;;;22.75;;
11394;SDS011;5753;54.402;10.220;2022-10-31T04:17:12;34.72;;;21.23;;
11394;SDS011;5753;54.402;10.220;2022-10-31T04:19:41;50.00;;;20.50;;
11394;SDS011;5753;54.402;10.220;2022-10-31T04:22:08;39.40;;;20.95;;
11394;SDS011;5753;54.402;10.220;2022-10-31T04:24:35;31.92;;;19.83;;
11394;SDS011;5753;54.402;10.220;2022-10-31T04:27:04;53.03;;;23.98;;
11394;SDS011;5753;54.402;10.220;2022-10-31T04:29:30;31.98;;;21.58;;
11394;SDS011;5753;54.402;10.220;2022-10-31T04:31:56;38.42;;;21.08;;
11394;SDS011;5753;54.402;10.220;2022-10-31T04:34:22;42.47;;;25.17;;
11394;SDS011;5753;54.402;10.220;2022-10-31T04:36:48;60.97;;;24.23;;
11394;SDS011;5753;54.402;10.220;2022-10-31T04:39:14;35.42;;;22.92;;
11394;SDS011;5753;54.402;10.220;2022-10-31T04:41:40;38.35;;;22.58;;
11394;SDS011;5753;54.402;10.220;2022-10-31T04:44:06;45.90;;;27.23;;
11394;SDS011;5753;54.402;10.220;2022-10-31T04:46:33;31.23;;;22.88;;
11394;SDS011;5753;54.402;10.220;2022-10-31T04:48:59;33.97;;;22.58;;
11394;SDS011;5753;54.402;10.220;2022-10-31T04:51:25;37.40;;;25.75;;
11394;SDS011;5753;54.402;10.220;2022-10-31T04:53:51;44.20;;;25.60;;
11394;SDS011;5753;54.402;10.220;2022-10-31T04:56:17;46.38;;;26.98;;
11394;SDS011;5753;54.402;10.220;2022-10-31T04:58:43;38.45;;;29.15;;
11394;SDS011;5753;54.402;10.220;2022-10-31T05:01:09;55.67;;;28.40;;
11394;SDS011;5753;54.402;10.220;2022-10-31T05:03:35;38.92;;;25.98;;
11394;SDS011;5753;54.402;10.220;2022-10-31T05:06:04;44.20;;;27.45;;
11394;SDS011;5753;54.402;10.220;2022-10-31T05:08:30;47.08;;;30.40;;
11394;SDS011;5753;54.402;10.220;2022-10-31T05:11:00;55.83;;;28.15;;
11394;SDS011;5753;54.402;10.220;2022-10-31T05:13:27;48.65;;;27.13;;
11394;SDS011;5753;54.402;10.220;2022-10-31T05:15:53;52.72;;;28.52;;
11394;SDS011;5753;54.402;10.220;2022-10-31T05:18:19;39.13;;;28.73;;
11394;SDS011;5753;54.402;10.220;2022-10-31T05:20:46;39.45;;;25.00;;
11394;SDS011;5753;54.402;10.220;2022-10-31T05:23:12;38.80;;;21.65;;
11394;SDS011;5753;54.402;10.220;2022-10-31T05:25:39;39.13;;;24.17;;
11394;SDS011;5753;54.402;10.220;2022-10-31T05:28:06;65.55;;;25.65;;
11394;SDS011;5753;54.402;10.220;2022-10-31T05:30:33;41.70;;;23.52;;
11394;SDS011;5753;54.402;10.220;2022-10-31T05:32:59;41.03;;;27.13;;
11394;SDS011;5753;54.402;10.220;2022-10-31T05:35:29;49.88;;;25.40;;
11394;SDS011;5753;54.402;10.220;2022-10-31T05:37:57;40.53;;;24.70;;
11394;SDS011;5753;54.402;10.220;2022-10-31T05:40:24;40.65;;;23.83;;
11394;SDS011;5753;54.402;10.220;2022-10-31T05:42:52;36.50;;;22.30;;
11394;SDS011;5753;54.402;10.220;2022-10-31T05:45:20;33.85;;;25.48;;
11394;SDS011;5753;54.402;10.220;2022-10-31T05:47:50;32.92;;;23.58;;
11394;SDS011;5753;54.402;10.220;2022-10-31T05:50:17;45.20;;;23.65;;
11394;SDS011;5753;54.402;10.220;2022-10-31T05:52:43;43.90;;;27.27;;
11394;SDS011;5753;54.402;10.220;2022-10-31T05:55:09;39.67;;;27.52;;
11394;SDS011;5753;54.402;10.220;2022-10-31T05:57:35;42.10;;;24.42;;
11394;SDS011;5753;54.402;10.220;2022-10-31T06:00:02;36.83;;;24.10;;
11394;SDS011;5753;54.402;10.220;2022-10-31T06:02:29;38.17;;;27.08;;
11394;SDS011;5753;54.402;10.220;2022-10-31T06:04:59;38.78;;;22.15;;
11394;SDS011;5753;54.402;10.220;2022-10-31T06:07:26;37.95;;;26.08;;
11394;SDS011;5753;54.402;10.220;2022-10-31T06:09:56;37.30;;;27.02;;
11394;SDS011;5753;54.402;10.220;2022-10-31T06:12:22;36.63;;;23.90;;
11394;SDS011;5753;54.402;10.220;2022-10-31T06:14:48;32.90;;;22.45;;
11394;SDS011;5753;54.402;10.220;2022-10-31T06:17:14;50.22;;;25.08;;
11394;SDS011;5753;54.402;10.220;2022-10-31T06:19:40;42.85;;;27.77;;
11394;SDS011;5753;54.402;10.220;2022-10-31T06:22:07;48.38;;;25.58;;
11394;SDS011;5753;54.402;10.220;2022-10-31T06:24:33;54.60;;;25.42;;
11394;SDS011;5753;54.402;10.220;2022-10-31T06:26:59;35.00;;;22.60;;
11394;SDS011;5753;54.402;10.220;2022-10-31T06:29:25;40.42;;;24.27;;
11394;SDS011;5753;54.402;10.220;2022-10-31T06:31:51;34.92;;;22.30;;
11394;SDS011;5753;54.402;10.220;2022-10-31T06:34:17;41.75;;;25.83;;
11394;SDS011;5753;54.402;10.220;2022-10-31T06:36:45;56.90;;;28.83;;
11394;SDS011;5753;54.402;10.220;2022-10-31T06:39:12;40.03;;;23.63;;
11394;SDS011;5753;54.402;10.220;2022-10-31T06:41:38;53.15;;;21.75;;
11394;SDS011;5753;54.402;10.220;2022-10-31T06:44:05;60.33;;;24.00;;
11394;SDS011;5753;54.402;10.220;2022-10-31T06:46:32;46.50;;;24.25;;
11394;SDS011;5753;54.402;10.220;2022-10-31T06:48:58;35.90;;;20.73;;
11394;SDS011;5753;54.402;10.220;2022-10-31T06:51:24;50.67;;;24.90;;
11394;SDS011;5753;54.402;10.220;2022-10-31T06:53:51;34.20;;;20.73;;
11394;SDS011;5753;54.402;10.220;2022-10-31T06:56:17;52.20;;;26.63;;
11394;SDS011;5753;54.402;10.220;2022-10-31T06:58:43;43.05;;;21.98;;
11394;SDS011;5753;54.402;10.220;2022-10-31T07:01:09;45.83;;;21.70;;
11394;SDS011;5753;54.402;10.220;2022-10-31T07:03:35;75.68;;;26.38;;
11394;SDS011;5753;54.402;10.220;2022-10-31T07:06:01;34.92;;;20.42;;
11394;SDS011;5753;54.402;10.220;2022-10-31T07:08:28;34.38;;;19.88;;
11394;SDS011;5753;54.402;10.220;2022-10-31T07:10:55;39.55;;;17.92;;
11394;SDS011;5753;54.402;10.220;2022-10-31T07:13:22;39.25;;;18.70;;
11394;SDS011;5753;54.402;10.220;2022-10-31T07:15:52;36.72;;;18.90;;
11394;SDS011;5753;54.402;10.220;2022-10-31T07:18:19;28.17;;;14.75;;
11394;SDS011;5753;54.402;10.220;2022-10-31T07:20:46;31.88;;;17.83;;
11394;SDS011;5753;54.402;10.220;2022-10-31T07:23:12;23.48;;;15.68;;
11394;SDS011;5753;54.402;10.220;2022-10-31T07:25:39;37.03;;;16.25;;
11394;SDS011;5753;54.402;10.220;2022-10-31T07:28:05;43.45;;;19.23;;
11394;SDS011;5753;54.402;10.220;2022-10-31T07:30:32;41.55;;;17.92;;
11394;SDS011;5753;54.402;10.220;2022-10-31T07:32:58;27.15;;;17.90;;
11394;SDS011;5753;54.402;10.220;2022-10-31T07:35:26;68.68;;;15.25;;
11394;SDS011;5753;54.402;10.220;2022-10-31T07:37:53;67.72;;;19.73;;
11394;SDS011;5753;54.402;10.220;2022-10-31T07:40:20;37.83;;;22.48;;
11394;SDS011;5753;54.402;10.220;2022-10-31T07:42:48;37.50;;;17.48;;
11394;SDS011;5753;54.402;10.220;2022-10-31T07:45:17;50.83;;;14.48;;
11394;SDS011;5753;54.402;10.220;2022-10-31T07:47:48;40.40;;;18.20;;
11394;SDS011;5753;54.402;10.220;2022-10-31T07:50:16;35.17;;;13.30;;
11394;SDS011;5753;54.402;10.220;2022-10-31T07:52:47;25.50;;;12.68;;
11394;SDS011;5753;54.402;10.220;2022-10-31T07:55:22;24.08;;;14.23;;
11394;SDS011;5753;54.402;10.220;2022-10-31T08:00:27;33.53;;;12.10;;
11394;SDS011;5753;54.402;10.220;2022-10-31T08:02:57;33.33;;;11.18;;
11394;SDS011;5753;54.402;10.220;2022-10-31T08:05:24;31.67;;;15.35;;
11394;SDS011;5753;54.402;10.220;2022-10-31T08:07:50;21.20;;;13.27;;
11394;SDS011;5753;54.402;10.220;2022-10-31T08:10:16;19.90;;;12.27;;
11394;SDS011;5753;54.402;10.220;2022-10-31T08:12:42;24.98;;;13.88;;
11394;SDS011;5753;54.402;10.220;2022-10-31T08:15:08;26.73;;;13.63;;
11394;SDS011;5753;54.402;10.220;2022-10-31T08:17:35;24.85;;;12.18;;
11394;SDS011;5753;54.402;10.220;2022-10-31T08:20:02;29.67;;;11.25;;
11394;SDS011;5753;54.402;10.220;2022-10-31T08:22:30;23.75;;;12.80;;
11394;SDS011;5753;54.402;10.220;2022-10-31T08:24:56;40.13;;;11.70;;
11394;SDS011;5753;54.402;10.220;2022-10-31T08:27:22;24.83;;;13.07;;
11394;SDS011;5753;54.402;10.220;2022-10-31T08:29:48;34.58;;;11.68;;
11394;SDS011;5753;54.402;10.220;2022-10-31T08:32:15;15.55;;;10.38;;
11394;SDS011;5753;54.402;10.220;2022-10-31T08:34:41;29.73;;;12.77;;
11394;SDS011;5753;54.402;10.220;2022-10-31T08:37:07;22.38;;;9.57;;
11394;SDS011;5753;54.402;10.220;2022-10-31T08:39:33;28.90;;;11.60;;
11394;SDS011;5753;54.402;10.220;2022-10-31T08:41:59;37.30;;;13.20;;
11394;SDS011;5753;54.402;10.220;2022-10-31T08:44:25;24.75;;;11.77;;
11394;SDS011;5753;54.402;10.220;2022-10-31T08:46:51;25.02;;;10.75;;
11394;SDS011;5753;54.402;10.220;2022-10-31T08:49:18;22.00;;;11.57;;
11394;SDS011;5753;54.402;10.220;2022-10-31T08:51:47;18.17;;;11.90;;
11394;SDS011;5753;54.402;10.220;2022-10-31T08:54:13;16.25;;;11.07;;
11394;SDS011;5753;54.402;10.220;2022-10-31T08:56:39;22.60;;;14.65;;
11394;SDS011;5753;54.402;10.220;2022-10-31T08:59:05;24.08;;;14.55;;
11394;SDS011;5753;54.402;10.220;2022-10-31T09:01:31;20.75;;;14.05;;
11394;SDS011;5753;54.402;10.220;2022-10-31T09:03:58;25.80;;;15.27;;
11394;SDS011;5753;54.402;10.220;2022-10-31T09:06:24;27.63;;;13.05;;
11394;SDS011;5753;54.402;10.220;2022-10-31T09:08:50;21.17;;;12.52;;
11394;SDS011;5753;54.402;10.220;2022-10-31T09:11:16;32.83;;;18.02;;
11394;SDS011;5753;54.402;10.220;2022-10-31T09:13:42;27.27;;;15.60;;
11394;SDS011;5753;54.402;10.220;2022-10-31T09:16:08;22.35;;;13.38;;
11394;SDS011;5753;54.402;10.220;2022-10-31T09:18:34;20.10;;;13.48;;
11394;SDS011;5753;54.402;10.220;2022-10-31T09:21:00;17.52;;;11.63;;
11394;SDS011;5753;54.402;10.220;2022-10-31T09:23:27;21.02;;;12.95;;
11394;SDS011;5753;54.402;10.220;2022-10-31T09:25:53;25.77;;;13.60;;
11394;SDS011;5753;54.402;10.220;2022-10-31T09:28:22;26.10;;;12.20;;
11394;SDS011;5753;54.402;10.220;2022-10-31T09:30:51;18.65;;;11.82;;
11394;SDS011;5753;54.402;10.220;2022-10-31T09:33:18;12.57;;;11.13;;
11394;SDS011;5753;54.402;10.220;2022-10-31T09:35:45;12.15;;;9.45;;
11394;SDS011;5753;54.402;10.220;2022-10-31T09:38:12;14.90;;;8.52;;
11394;SDS011;5753;54.402;10.220;2022-10-31T09:40:43;21.15;;;8.93;;
11394;SDS011;5753;54.402;10.220;2022-10-31T09:46:16;10.88;;;7.28;;
11394;SDS011;5753;54.402;10.220;2022-10-31T09:52:00;12.55;;;7.70;;
11394;SDS011;5753;54.402;10.220;2022-10-31T09:54:33;13.82;;;6.68;;
11394;SDS011;5753;54.402;10.220;2022-10-31T09:57:00;10.68;;;7.35;;
11394;SDS011;5753;54.402;10.220;2022-10-31T09:59:31;12.90;;;8.70;;
11394;SDS011;5753;54.402;10.220;2022-10-31T10:02:03;17.10;;;8.80;;
11394;SDS011;5753;54.402;10.220;2022-10-31T10:10:14;13.45;;;8.45;;
11394;SDS011;5753;54.402;10.220;2022-10-31T10:20:43;9.80;;;7.32;;
11394;SDS011;5753;54.402;10.220;2022-10-31T10:26:15;9.23;;;6.28;;
11394;SDS011;5753;54.402;10.220;2022-10-31T10:28:45;13.73;;;7.10;;
11394;SDS011;5753;54.402;10.220;2022-10-31T10:31:32;11.98;;;6.95;;
11394;SDS011;5753;54.402;10.220;2022-10-31T10:34:10;13.90;;;6.90;;
11394;SDS011;5753;54.402;10.220;2022-10-31T10:36:44;13.13;;;7.65;;
11394;SDS011;5753;54.402;10.220;2022-10-31T10:39:22;9.85;;;6.65;;
11394;SDS011;5753;54.402;10.220;2022-10-31T10:41:57;11.20;;;7.53;;
11394;SDS011;5753;54.402;10.220;2022-10-31T10:44:47;16.10;;;8.40;;
11394;SDS011;5753;54.402;10.220;2022-10-31T10:47:39;11.55;;;7.32;;
11394;SDS011;5753;54.402;10.220;2022-10-31T10:50:19;6.65;;;5.85;;
11394;SDS011;5753;54.402;10.220;2022-10-31T10:55:43;10.35;;;6.15;;
11394;SDS011;5753;54.402;10.220;2022-10-31T10:58:17;9.43;;;6.05;;
11394;SDS011;5753;54.402;10.220;2022-10-31T11:00:43;9.77;;;6.82;;
11394;SDS011;5753;54.402;10.220;2022-10-31T11:03:14;8.40;;;5.43;;
11394;SDS011;5753;54.402;10.220;2022-10-31T11:11:05;8.88;;;6.40;;
11394;SDS011;5753;54.402;10.220;2022-10-31T11:13:40;10.45;;;7.78;;
11394;SDS011;5753;54.402;10.220;2022-10-31T11:16:10;14.00;;;7.03;;
11394;SDS011;5753;54.402;10.220;2022-10-31T11:18:43;9.48;;;5.80;;
11394;SDS011;5753;54.402;10.220;2022-10-31T11:23:46;13.32;;;6.65;;
11394;SDS011;5753;54.402;10.220;2022-10-31T11:26:19;10.95;;;5.82;;
11394;SDS011;5753;54.402;10.220;2022-10-31T11:28:55;14.27;;;6.38;;
11394;SDS011;5753;54.402;10.220;2022-10-31T11:31:23;9.95;;;5.15;;
11394;SDS011;5753;54.402;10.220;2022-10-31T11:34:02;11.00;;;5.53;;
11394;SDS011;5753;54.402;10.220;2022-10-31T11:36:34;5.75;;;4.28;;
11394;SDS011;5753;54.402;10.220;2022-10-31T11:39:03;12.95;;;6.82;;
11394;SDS011;5753;54.402;10.220;2022-10-31T11:41:39;9.70;;;4.50;;
11394;SDS011;5753;54.402;10.220;2022-10-31T11:44:18;9.48;;;3.78;;
11394;SDS011;5753;54.402;10.220;2022-10-31T11:46:55;5.15;;;2.95;;
11394;SDS011;5753;54.402;10.220;2022-10-31T11:52:03;11.75;;;4.30;;
11394;SDS011;5753;54.402;10.220;2022-10-31T11:54:33;10.60;;;4.55;;
11394;SDS011;5753;54.402;10.220;2022-10-31T11:57:25;10.95;;;5.18;;
11394;SDS011;5753;54.402;10.220;2022-10-31T12:00:17;6.32;;;4.47;;
11394;SDS011;5753;54.402;10.220;2022-10-31T12:02:47;8.85;;;4.28;;
11394;SDS011;5753;54.402;10.220;2022-10-31T12:05:23;7.00;;;4.88;;
11394;SDS011;5753;54.402;10.220;2022-10-31T12:07:57;9.45;;;4.40;;
11394;SDS011;5753;54.402;10.220;2022-10-31T12:10:25;8.60;;;4.43;;
11394;SDS011;5753;54.402;10.220;2022-10-31T12:15:36;5.55;;;3.72;;
11394;SDS011;5753;54.402;10.220;2022-10-31T12:31:33;5.53;;;4.05;;
11394;SDS011;5753;54.402;10.220;2022-10-31T12:46:00;6.90;;;4.13;;
11394;SDS011;5753;54.402;10.220;2022-10-31T12:51:24;6.53;;;5.03;;
11394;SDS011;5753;54.402;10.220;2022-10-31T12:54:11;14.10;;;8.23;;
11394;SDS011;5753;54.402;10.220;2022-10-31T12:57:20;7.68;;;5.22;;
11394;SDS011;5753;54.402;10.220;2022-10-31T12:59:53;13.27;;;6.05;;
11394;SDS011;5753;54.402;10.220;2022-10-31T13:05:19;13.93;;;8.18;;
11394;SDS011;5753;54.402;10.220;2022-10-31T13:08:02;8.98;;;7.25;;
11394;SDS011;5753;54.402;10.220;2022-10-31T13:10:34;11.10;;;8.47;;
11394;SDS011;5753;54.402;10.220;2022-10-31T13:13:31;13.68;;;8.35;;
11394;SDS011;5753;54.402;10.220;2022-10-31T13:16:31;8.88;;;6.70;;
11394;SDS011;5753;54.402;10.220;2022-10-31T13:22:08;13.98;;;7.57;;
11394;SDS011;5753;54.402;10.220;2022-10-31T13:24:53;17.27;;;7.65;;
11394;SDS011;5753;54.402;10.220;2022-10-31T13:32:37;7.40;;;3.80;;
11394;SDS011;5753;54.402;10.220;2022-10-31T13:35:33;7.82;;;4.15;;
11394;SDS011;5753;54.402;10.220;2022-10-31T13:38:19;11.27;;;6.70;;
11394;SDS011;5753;54.402;10.220;2022-10-31T13:46:49;8.63;;;5.35;;
11394;SDS011;5753;54.402;10.220;2022-10-31T13:54:32;13.50;;;7.78;;
11394;SDS011;5753;54.402;10.220;2022-10-31T13:56:59;7.72;;;5.45;;
11394;SDS011;5753;54.402;10.220;2022-10-31T13:59:26;15.85;;;6.63;;
11394;SDS011;5753;54.402;10.220;2022-10-31T14:02:00;4.00;;;3.15;;
11394;SDS011;5753;54.402;10.220;2022-10-31T14:04:38;10.25;;;6.10;;
11394;SDS011;5753;54.402;10.220;2022-10-31T14:07:13;9.70;;;4.93;;
11394;SDS011;5753;54.402;10.220;2022-10-31T14:15:26;5.70;;;4.60;;
11394;SDS011;5753;54.402;10.220;2022-10-31T14:18:01;13.38;;;4.95;;
11394;SDS011;5753;54.402;10.220;2022-10-31T14:22:56;8.80;;;4.85;;
11394;SDS011;5753;54.402;10.220;2022-10-31T14:25:33;10.05;;;5.43;;
11394;SDS011;5753;54.402;10.220;2022-10-31T14:28:03;11.30;;;5.55;;
11394;SDS011;5753;54.402;10.220;2022-10-31T14:30:53;7.50;;;5.13;;
11394;SDS011;5753;54.402;10.220;2022-10-31T14:33:22;7.57;;;5.60;;
11394;SDS011;5753;54.402;10.220;2022-10-31T14:36:04;12.32;;;8.32;;
11394;SDS011;5753;54.402;10.220;2022-10-31T14:38:50;11.77;;;6.53;;
11394;SDS011;5753;54.402;10.220;2022-10-31T14:41:46;8.98;;;4.70;;
11394;SDS011;5753;54.402;10.220;2022-10-31T14:50:07;14.25;;;6.30;;
11394;SDS011;5753;54.402;10.220;2022-10-31T14:52:36;4.78;;;3.78;;
11394;SDS011;5753;54.402;10.220;2022-10-31T14:55:05;9.60;;;5.18;;
11394;SDS011;5753;54.402;10.220;2022-10-31T14:57:36;9.77;;;5.55;;
11394;SDS011;5753;54.402;10.220;2022-10-31T15:00:19;9.93;;;5.15;;
11394;SDS011;5753;54.402;10.220;2022-10-31T15:05:41;8.75;;;5.75;;
11394;SDS011;5753;54.402;10.220;2022-10-31T15:11:14;11.82;;;5.25;;
11394;SDS011;5753;54.402;10.220;2022-10-31T15:13:46;16.27;;;7.80;;
11394;SDS011;5753;54.402;10.220;2022-10-31T15:16:19;12.48;;;6.85;;
11394;SDS011;5753;54.402;10.220;2022-10-31T15:18:56;13.77;;;6.68;;
11394;SDS011;5753;54.402;10.220;2022-10-31T15:21:26;9.90;;;4.63;;
11394;SDS011;5753;54.402;10.220;2022-10-31T15:23:54;5.78;;;4.43;;
11394;SDS011;5753;54.402;10.220;2022-10-31T15:26:23;5.93;;;5.03;;
11394;SDS011;5753;54.402;10.220;2022-10-31T15:28:59;7.72;;;4.95;;
11394;SDS011;5753;54.402;10.220;2022-10-31T15:31:27;8.55;;;4.30;;
11394;SDS011;5753;54.402;10.220;2022-10-31T15:33:54;12.77;;;4.93;;
11394;SDS011;5753;54.402;10.220;2022-10-31T15:36:24;8.38;;;5.88;;
11394;SDS011;5753;54.402;10.220;2022-10-31T15:38:51;10.00;;;7.28;;
11394;SDS011;5753;54.402;10.220;2022-10-31T15:41:24;8.80;;;5.15;;
11394;SDS011;5753;54.402;10.220;2022-10-31T15:44:15;17.60;;;7.60;;
11394;SDS011;5753;54.402;10.220;2022-10-31T15:47:30;11.30;;;6.00;;
11394;SDS011;5753;54.402;10.220;2022-10-31T15:49:50;7.97;;;6.38;;
11394;SDS011;5753;54.402;10.220;2022-10-31T15:55:05;15.50;;;9.30;;
11394;SDS011;5753;54.402;10.220;2022-10-31T15:57:42;9.88;;;6.47;;
11394;SDS011;5753;54.402;10.220;2022-10-31T16:00:27;15.38;;;7.20;;
11394;SDS011;5753;54.402;10.220;2022-10-31T16:03:32;10.80;;;8.18;;
11394;SDS011;5753;54.402;10.220;2022-10-31T16:05:54;9.48;;;6.70;;
11394;SDS011;5753;54.402;10.220;2022-10-31T16:10:54;15.02;;;9.90;;
11394;SDS011;5753;54.402;10.220;2022-10-31T16:13:26;16.20;;;7.53;;
11394;SDS011;5753;54.402;10.220;2022-10-31T16:15:55;16.75;;;10.45;;
11394;SDS011;5753;54.402;10.220;2022-10-31T16:18:25;11.52;;;10.30;;
11394;SDS011;5753;54.402;10.220;2022-10-31T16:20:55;10.63;;;7.80;;
11394;SDS011;5753;54.402;10.220;2022-10-31T16:23:22;12.65;;;9.93;;
11394;SDS011;5753;54.402;10.220;2022-10-31T16:25:51;15.80;;;8.75;;
11394;SDS011;5753;54.402;10.220;2022-10-31T16:28:18;19.30;;;9.40;;
11394;SDS011;5753;54.402;10.220;2022-10-31T16:30:47;15.45;;;11.48;;
11394;SDS011;5753;54.402;10.220;2022-10-31T16:33:21;15.55;;;10.10;;
11394;SDS011;5753;54.402;10.220;2022-10-31T16:35:51;14.27;;;10.27;;
11394;SDS011;5753;54.402;10.220;2022-10-31T16:38:18;19.10;;;11.90;;
11394;SDS011;5753;54.402;10.220;2022-10-31T16:40:44;16.20;;;9.65;;
11394;SDS011;5753;54.402;10.220;2022-10-31T16:43:12;14.00;;;11.02;;
11394;SDS011;5753;54.402;10.220;2022-10-31T16:45:44;14.82;;;9.40;;
11394;SDS011;5753;54.402;10.220;2022-10-31T16:48:18;12.13;;;7.72;;
11394;SDS011;5753;54.402;10.220;2022-10-31T16:50:47;18.67;;;13.15;;
11394;SDS011;5753;54.402;10.220;2022-10-31T16:53:15;15.90;;;11.32;;
11394;SDS011;5753;54.402;10.220;2022-10-31T16:55:53;14.77;;;8.48;;
11394;SDS011;5753;54.402;10.220;2022-10-31T16:58:25;13.68;;;10.48;;
11394;SDS011;5753;54.402;10.220;2022-10-31T17:00:54;15.43;;;11.27;;
11394;SDS011;5753;54.402;10.220;2022-10-31T17:03:21;18.27;;;11.18;;
11394;SDS011;5753;54.402;10.220;2022-10-31T17:05:47;18.23;;;10.90;;
11394;SDS011;5753;54.402;10.220;2022-10-31T17:08:14;17.95;;;9.23;;
11394;SDS011;5753;54.402;10.220;2022-10-31T17:10:40;12.80;;;9.90;;